sensor_id;sensor_type;location;lat;lon;timestamp;P1;P2;P0
64861;PMS5003;62652;42.274;-71.436;2022-12-18T00:00:00;6.50;6.40;3.90
64861;PMS5003;62652;42.274;-71.436;2022-12-18T00:01:01;6.30;6.30;4.90
64861;PMS5003;62652;42.274;-71.436;2022-12-18T00:02:01;9.03;9.03;4.70
64861;PMS5003;62652;42.274;-71.436;2022-12-18T00:03:00;6.70;6.40;4.60
64861;PMS5003;62652;42.274;-71.436;2022-12-18T00:04:01;7.70;7.30;3.30
64861;PMS5003;62652;42.274;-71.436;2022-12-18T00:05:00;7.50;6.40;5.00
64861;PMS5003;62652;42.274;-71.436;2022-12-18T00:06:01;7.70;7.20;3.80
64861;PMS5003;62652;42.274;-71.436;2022-12-18T00:07:00;6.30;6.10;3.80
64861;PMS5003;62652;42.274;-71.436;2022-12-18T00:08:00;4.60;4.60;3.10
64861;PMS5003;62652;42.274;-71.436;2022-12-18T00:09:01;7.80;7.20;4.30
64861;PMS5003;62652;42.274;-71.436;2022-12-18T00:10:00;7.00;6.10;4.20
64861;PMS5003;62652;42.274;-71.436;2022-12-18T00:11:03;8.70;8.10;4.80
64861;PMS5003;62652;42.274;-71.436;2022-12-18T00:12:00;7.70;6.90;4.30
64861;PMS5003;62652;42.274;-71.436;2022-12-18T00:13:01;7.50;6.70;4.30
64861;PMS5003;62652;42.274;-71.436;2022-12-18T00:14:00;8.40;7.50;4.90
64861;PMS5003;62652;42.274;-71.436;2022-12-18T00:15:00;7.10;7.10;4.50
64861;PMS5003;62652;42.274;-71.436;2022-12-18T00:16:01;9.30;8.90;6.40
64861;PMS5003;62652;42.274;-71.436;2022-12-18T00:17:00;5.90;5.50;4.00
64861;PMS5003;62652;42.274;-71.436;2022-12-18T00:18:00;7.20;6.90;4.90
64861;PMS5003;62652;42.274;-71.436;2022-12-18T00:19:01;7.40;7.00;4.10
64861;PMS5003;62652;42.274;-71.436;2022-12-18T00:20:01;7.80;6.67;4.70
64861;PMS5003;62652;42.274;-71.436;2022-12-18T00:21:01;9.10;8.70;5.40
64861;PMS5003;62652;42.274;-71.436;2022-12-18T00:22:00;8.77;8.50;4.87
64861;PMS5003;62652;42.274;-71.436;2022-12-18T00:23:00;8.97;7.93;4.83
64861;PMS5003;62652;42.274;-71.436;2022-12-18T00:24:01;8.23;8.03;5.47
64861;PMS5003;62652;42.274;-71.436;2022-12-18T00:25:00;8.30;7.13;5.50
64861;PMS5003;62652;42.274;-71.436;2022-12-18T00:26:01;7.93;6.50;4.13
64861;PMS5003;62652;42.274;-71.436;2022-12-18T00:27:00;9.93;9.23;6.00
64861;PMS5003;62652;42.274;-71.436;2022-12-18T00:28:00;7.27;7.07;4.83
64861;PMS5003;62652;42.274;-71.436;2022-12-18T00:29:01;7.63;7.07;5.00
64861;PMS5003;62652;42.274;-71.436;2022-12-18T00:30:00;7.73;7.53;5.57
64861;PMS5003;62652;42.274;-71.436;2022-12-18T00:31:01;8.97;8.70;5.80
64861;PMS5003;62652;42.274;-71.436;2022-12-18T00:32:00;8.50;8.50;5.63
64861;PMS5003;62652;42.274;-71.436;2022-12-18T00:33:00;8.27;7.77;4.73
64861;PMS5003;62652;42.274;-71.436;2022-12-18T00:34:01;7.40;7.33;4.73
64861;PMS5003;62652;42.274;-71.436;2022-12-18T00:35:01;7.87;7.23;5.23
64861;PMS5003;62652;42.274;-71.436;2022-12-18T00:36:01;10.30;9.40;6.20
64861;PMS5003;62652;42.274;-71.436;2022-12-18T00:37:01;6.47;6.33;4.00
64861;PMS5003;62652;42.274;-71.436;2022-12-18T00:38:00;7.80;7.80;5.40
64861;PMS5003;62652;42.274;-71.436;2022-12-18T00:39:01;4.40;4.20;2.00
64861;PMS5003;62652;42.274;-71.436;2022-12-18T00:40:00;8.53;8.43;5.73
64861;PMS5003;62652;42.274;-71.436;2022-12-18T00:41:00;9.63;8.50;5.40
64861;PMS5003;62652;42.274;-71.436;2022-12-18T00:42:00;10.20;10.07;6.00
64861;PMS5003;62652;42.274;-71.436;2022-12-18T00:43:00;8.80;7.87;4.80
64861;PMS5003;62652;42.274;-71.436;2022-12-18T00:44:00;11.43;10.53;5.50
64861;PMS5003;62652;42.274;-71.436;2022-12-18T00:45:00;12.27;10.50;6.10
64861;PMS5003;62652;42.274;-71.436;2022-12-18T00:46:01;8.90;8.70;6.20
64861;PMS5003;62652;42.274;-71.436;2022-12-18T00:47:00;7.20;6.40;4.40
64861;PMS5003;62652;42.274;-71.436;2022-12-18T00:48:00;9.93;9.40;5.60
64861;PMS5003;62652;42.274;-71.436;2022-12-18T00:49:01;10.60;9.10;6.00
64861;PMS5003;62652;42.274;-71.436;2022-12-18T00:50:00;8.10;7.30;5.00
64861;PMS5003;62652;42.274;-71.436;2022-12-18T00:51:00;13.30;10.80;6.70
64861;PMS5003;62652;42.274;-71.436;2022-12-18T00:52:00;11.23;9.83;6.00
64861;PMS5003;62652;42.274;-71.436;2022-12-18T00:53:00;9.87;9.60;5.80
64861;PMS5003;62652;42.274;-71.436;2022-12-18T00:54:00;8.90;8.40;6.50
64861;PMS5003;62652;42.274;-71.436;2022-12-18T00:55:00;6.80;6.50;5.00
64861;PMS5003;62652;42.274;-71.436;2022-12-18T00:56:00;12.47;9.50;5.30
64861;PMS5003;62652;42.274;-71.436;2022-12-18T00:57:01;8.90;8.60;6.10
64861;PMS5003;62652;42.274;-71.436;2022-12-18T00:58:00;9.00;8.80;5.80
64861;PMS5003;62652;42.274;-71.436;2022-12-18T00:59:00;10.40;9.40;6.00
64861;PMS5003;62652;42.274;-71.436;2022-12-18T01:00:00;9.20;9.00;6.50
64861;PMS5003;62652;42.274;-71.436;2022-12-18T01:01:00;8.00;7.90;5.00
64861;PMS5003;62652;42.274;-71.436;2022-12-18T01:02:00;9.87;8.80;5.00
64861;PMS5003;62652;42.274;-71.436;2022-12-18T01:03:00;10.00;9.80;5.20
64861;PMS5003;62652;42.274;-71.436;2022-12-18T01:04:01;9.20;8.40;6.00
64861;PMS5003;62652;42.274;-71.436;2022-12-18T01:05:00;12.10;10.80;6.60
64861;PMS5003;62652;42.274;-71.436;2022-12-18T01:06:05;9.10;9.00;5.90
64861;PMS5003;62652;42.274;-71.436;2022-12-18T01:07:00;10.20;9.10;6.70
64861;PMS5003;62652;42.274;-71.436;2022-12-18T01:08:01;9.30;8.80;5.70
64861;PMS5003;62652;42.274;-71.436;2022-12-18T01:09:00;9.10;8.30;5.40
64861;PMS5003;62652;42.274;-71.436;2022-12-18T01:10:00;9.00;8.60;6.30
64861;PMS5003;62652;42.274;-71.436;2022-12-18T01:11:01;9.50;7.80;4.53
64861;PMS5003;62652;42.274;-71.436;2022-12-18T01:12:00;11.80;10.43;6.43
64861;PMS5003;62652;42.274;-71.436;2022-12-18T01:13:00;11.30;10.80;5.97
64861;PMS5003;62652;42.274;-71.436;2022-12-18T01:14:00;10.17;8.63;5.67
64861;PMS5003;62652;42.274;-71.436;2022-12-18T01:15:00;9.83;9.57;6.27
64861;PMS5003;62652;42.274;-71.436;2022-12-18T01:16:01;9.40;8.43;5.93
64861;PMS5003;62652;42.274;-71.436;2022-12-18T01:17:00;9.50;8.80;5.73
64861;PMS5003;62652;42.274;-71.436;2022-12-18T01:18:00;9.43;8.60;5.10
64861;PMS5003;62652;42.274;-71.436;2022-12-18T01:19:01;9.63;9.03;5.93
64861;PMS5003;62652;42.274;-71.436;2022-12-18T01:20:00;7.10;7.10;4.60
64861;PMS5003;62652;42.274;-71.436;2022-12-18T01:21:00;9.30;8.37;6.07
64861;PMS5003;62652;42.274;-71.436;2022-12-18T01:22:00;9.37;9.07;5.97
64861;PMS5003;62652;42.274;-71.436;2022-12-18T01:23:00;10.97;8.57;5.37
64861;PMS5003;62652;42.274;-71.436;2022-12-18T01:24:00;10.47;10.37;5.83
64861;PMS5003;62652;42.274;-71.436;2022-12-18T01:25:01;7.47;6.70;4.50
64861;PMS5003;62652;42.274;-71.436;2022-12-18T01:26:04;8.93;8.13;5.90
64861;PMS5003;62652;42.274;-71.436;2022-12-18T01:27:00;9.70;9.20;6.03
64861;PMS5003;62652;42.274;-71.436;2022-12-18T01:28:01;8.20;7.80;5.10
64861;PMS5003;62652;42.274;-71.436;2022-12-18T01:29:00;10.10;9.30;5.60
64861;PMS5003;62652;42.274;-71.436;2022-12-18T01:30:01;10.60;9.50;5.80
64861;PMS5003;62652;42.274;-71.436;2022-12-18T01:32:00;10.70;10.20;6.00
64861;PMS5003;62652;42.274;-71.436;2022-12-18T01:33:00;8.90;8.07;5.70
64861;PMS5003;62652;42.274;-71.436;2022-12-18T01:34:00;12.67;11.33;7.40
64861;PMS5003;62652;42.274;-71.436;2022-12-18T01:35:00;10.00;9.40;6.00
64861;PMS5003;62652;42.274;-71.436;2022-12-18T01:36:00;10.70;10.10;7.40
64861;PMS5003;62652;42.274;-71.436;2022-12-18T01:37:01;10.20;8.60;6.10
64861;PMS5003;62652;42.274;-71.436;2022-12-18T01:38:00;9.80;8.70;6.33
64861;PMS5003;62652;42.274;-71.436;2022-12-18T01:39:01;10.27;9.50;5.97
64861;PMS5003;62652;42.274;-71.436;2022-12-18T01:40:00;9.37;9.17;6.33
64861;PMS5003;62652;42.274;-71.436;2022-12-18T01:41:01;10.67;9.70;6.53
64861;PMS5003;62652;42.274;-71.436;2022-12-18T01:42:01;6.97;6.60;2.67
64861;PMS5003;62652;42.274;-71.436;2022-12-18T01:43:00;9.10;8.40;6.10
64861;PMS5003;62652;42.274;-71.436;2022-12-18T01:44:00;9.20;9.00;6.20
64861;PMS5003;62652;42.274;-71.436;2022-12-18T01:45:02;10.07;8.60;5.43
64861;PMS5003;62652;42.274;-71.436;2022-12-18T01:46:00;9.97;9.93;5.93
64861;PMS5003;62652;42.274;-71.436;2022-12-18T01:47:00;9.00;7.37;5.17
64861;PMS5003;62652;42.274;-71.436;2022-12-18T01:48:01;8.17;7.07;3.87
64861;PMS5003;62652;42.274;-71.436;2022-12-18T01:49:01;11.97;11.43;5.93
64861;PMS5003;62652;42.274;-71.436;2022-12-18T01:50:02;8.40;7.63;5.03
64861;PMS5003;62652;42.274;-71.436;2022-12-18T01:51:00;8.60;8.60;5.70
64861;PMS5003;62652;42.274;-71.436;2022-12-18T01:52:01;8.20;8.10;5.10
64861;PMS5003;62652;42.274;-71.436;2022-12-18T01:53:02;7.90;7.30;3.80
64861;PMS5003;62652;42.274;-71.436;2022-12-18T01:54:00;11.60;11.17;8.50
64861;PMS5003;62652;42.274;-71.436;2022-12-18T01:55:01;10.03;10.03;6.20
64861;PMS5003;62652;42.274;-71.436;2022-12-18T01:56:00;11.53;10.70;6.27
64861;PMS5003;62652;42.274;-71.436;2022-12-18T01:57:00;11.17;10.33;6.00
64861;PMS5003;62652;42.274;-71.436;2022-12-18T01:58:00;11.80;9.13;5.90
64861;PMS5003;62652;42.274;-71.436;2022-12-18T01:59:01;5.90;5.57;3.43
64861;PMS5003;62652;42.274;-71.436;2022-12-18T02:00:01;9.07;8.33;5.00
64861;PMS5003;62652;42.274;-71.436;2022-12-18T02:01:00;12.77;11.40;5.67
64861;PMS5003;62652;42.274;-71.436;2022-12-18T02:02:01;8.57;8.40;5.97
64861;PMS5003;62652;42.274;-71.436;2022-12-18T02:03:01;9.00;8.90;5.07
64861;PMS5003;62652;42.274;-71.436;2022-12-18T02:05:00;8.60;7.50;5.00
64861;PMS5003;62652;42.274;-71.436;2022-12-18T02:06:01;8.90;8.10;4.80
64861;PMS5003;62652;42.274;-71.436;2022-12-18T02:07:03;8.93;8.50;5.50
64861;PMS5003;62652;42.274;-71.436;2022-12-18T02:08:02;9.70;8.30;5.37
64861;PMS5003;62652;42.274;-71.436;2022-12-18T02:09:02;10.20;9.47;5.53
64861;PMS5003;62652;42.274;-71.436;2022-12-18T02:10:02;11.20;10.47;5.93
64861;PMS5003;62652;42.274;-71.436;2022-12-18T02:11:02;7.70;7.20;5.93
64861;PMS5003;62652;42.274;-71.436;2022-12-18T02:12:02;9.17;8.20;5.23
64861;PMS5003;62652;42.274;-71.436;2022-12-18T02:13:02;11.97;11.40;5.83
64861;PMS5003;62652;42.274;-71.436;2022-12-18T02:14:02;11.03;9.90;5.27
64861;PMS5003;62652;42.274;-71.436;2022-12-18T02:15:02;9.70;9.10;6.50
64861;PMS5003;62652;42.274;-71.436;2022-12-18T02:16:02;11.20;9.10;6.30
64861;PMS5003;62652;42.274;-71.436;2022-12-18T02:17:01;7.50;7.00;5.10
64861;PMS5003;62652;42.274;-71.436;2022-12-18T02:18:02;11.40;9.60;6.20
64861;PMS5003;62652;42.274;-71.436;2022-12-18T02:19:01;11.17;10.10;6.40
64861;PMS5003;62652;42.274;-71.436;2022-12-18T02:20:03;10.97;9.30;5.10
64861;PMS5003;62652;42.274;-71.436;2022-12-18T02:21:02;9.90;9.20;5.30
64861;PMS5003;62652;42.274;-71.436;2022-12-18T02:22:03;7.40;7.00;5.10
64861;PMS5003;62652;42.274;-71.436;2022-12-18T02:23:05;10.80;9.00;5.30
64861;PMS5003;62652;42.274;-71.436;2022-12-18T02:24:04;13.87;13.00;5.80
64861;PMS5003;62652;42.274;-71.436;2022-12-18T02:25:05;12.20;9.10;6.50
64861;PMS5003;62652;42.274;-71.436;2022-12-18T02:26:04;9.50;9.30;7.00
64861;PMS5003;62652;42.274;-71.436;2022-12-18T02:27:01;7.60;7.27;4.50
64861;PMS5003;62652;42.274;-71.436;2022-12-18T02:28:01;9.90;9.10;5.50
64861;PMS5003;62652;42.274;-71.436;2022-12-18T02:29:01;7.90;7.70;5.50
64861;PMS5003;62652;42.274;-71.436;2022-12-18T02:30:01;11.30;10.00;6.00
64861;PMS5003;62652;42.274;-71.436;2022-12-18T02:31:01;7.80;7.80;5.10
64861;PMS5003;62652;42.274;-71.436;2022-12-18T02:32:00;12.67;11.07;6.90
64861;PMS5003;62652;42.274;-71.436;2022-12-18T02:33:00;10.60;10.60;6.10
64861;PMS5003;62652;42.274;-71.436;2022-12-18T02:34:02;9.00;8.70;5.20
64861;PMS5003;62652;42.274;-71.436;2022-12-18T02:35:01;9.20;9.13;5.30
64861;PMS5003;62652;42.274;-71.436;2022-12-18T02:36:01;11.53;10.57;6.30
64861;PMS5003;62652;42.274;-71.436;2022-12-18T02:37:01;10.57;9.33;5.60
64861;PMS5003;62652;42.274;-71.436;2022-12-18T02:38:00;11.67;10.70;5.60
64861;PMS5003;62652;42.274;-71.436;2022-12-18T02:39:01;10.13;8.80;6.03
64861;PMS5003;62652;42.274;-71.436;2022-12-18T02:40:00;11.30;10.13;6.47
64861;PMS5003;62652;42.274;-71.436;2022-12-18T02:41:01;11.30;9.93;5.70
64861;PMS5003;62652;42.274;-71.436;2022-12-18T02:42:00;12.23;11.53;6.93
64861;PMS5003;62652;42.274;-71.436;2022-12-18T02:43:06;12.50;11.60;6.50
64861;PMS5003;62652;42.274;-71.436;2022-12-18T02:44:01;14.97;10.73;6.40
64861;PMS5003;62652;42.274;-71.436;2022-12-18T02:45:00;9.47;9.37;5.77
64861;PMS5003;62652;42.274;-71.436;2022-12-18T02:46:01;10.97;9.93;6.00
64861;PMS5003;62652;42.274;-71.436;2022-12-18T02:47:01;11.20;11.20;7.20
64861;PMS5003;62652;42.274;-71.436;2022-12-18T02:48:00;9.53;9.53;5.73
64861;PMS5003;62652;42.274;-71.436;2022-12-18T02:49:03;11.43;11.27;6.80
64861;PMS5003;62652;42.274;-71.436;2022-12-18T02:50:03;9.33;8.87;6.17
64861;PMS5003;62652;42.274;-71.436;2022-12-18T02:51:02;11.17;10.97;7.40
64861;PMS5003;62652;42.274;-71.436;2022-12-18T02:52:02;11.20;9.97;6.33
64861;PMS5003;62652;42.274;-71.436;2022-12-18T02:53:03;6.37;5.17;3.57
64861;PMS5003;62652;42.274;-71.436;2022-12-18T02:54:02;12.17;10.63;5.67
64861;PMS5003;62652;42.274;-71.436;2022-12-18T02:55:04;11.20;11.20;6.77
64861;PMS5003;62652;42.274;-71.436;2022-12-18T02:56:03;8.90;8.90;5.87
64861;PMS5003;62652;42.274;-71.436;2022-12-18T02:57:02;11.43;10.80;6.27
64861;PMS5003;62652;42.274;-71.436;2022-12-18T02:58:02;12.80;10.30;6.90
64861;PMS5003;62652;42.274;-71.436;2022-12-18T02:59:02;12.63;11.57;6.80
64861;PMS5003;62652;42.274;-71.436;2022-12-18T03:00:03;12.77;11.00;6.67
64861;PMS5003;62652;42.274;-71.436;2022-12-18T03:01:01;12.53;12.07;7.00
64861;PMS5003;62652;42.274;-71.436;2022-12-18T03:02:01;10.90;10.20;5.20
64861;PMS5003;62652;42.274;-71.436;2022-12-18T03:03:02;10.70;10.70;6.70
64861;PMS5003;62652;42.274;-71.436;2022-12-18T03:04:01;11.90;10.30;6.00
64861;PMS5003;62652;42.274;-71.436;2022-12-18T03:05:02;12.50;11.50;6.53
64861;PMS5003;62652;42.274;-71.436;2022-12-18T03:06:02;11.30;11.00;6.50
64861;PMS5003;62652;42.274;-71.436;2022-12-18T03:07:01;13.60;11.80;7.00
64861;PMS5003;62652;42.274;-71.436;2022-12-18T03:08:01;10.57;9.77;5.90
64861;PMS5003;62652;42.274;-71.436;2022-12-18T03:09:02;11.80;11.80;7.00
64861;PMS5003;62652;42.274;-71.436;2022-12-18T03:10:00;10.10;9.80;6.40
64861;PMS5003;62652;42.274;-71.436;2022-12-18T03:11:02;12.60;11.60;7.00
64861;PMS5003;62652;42.274;-71.436;2022-12-18T03:12:02;12.10;11.90;7.30
64861;PMS5003;62652;42.274;-71.436;2022-12-18T03:13:02;12.30;11.10;6.80
64861;PMS5003;62652;42.274;-71.436;2022-12-18T03:14:00;13.20;12.70;7.80
64861;PMS5003;62652;42.274;-71.436;2022-12-18T03:15:01;13.20;12.00;6.90
64861;PMS5003;62652;42.274;-71.436;2022-12-18T03:16:00;14.20;12.90;7.50
64861;PMS5003;62652;42.274;-71.436;2022-12-18T03:17:02;12.30;11.60;7.70
64861;PMS5003;62652;42.274;-71.436;2022-12-18T03:18:02;13.90;13.30;7.40
64861;PMS5003;62652;42.274;-71.436;2022-12-18T03:19:01;11.30;10.70;7.40
64861;PMS5003;62652;42.274;-71.436;2022-12-18T03:20:03;10.60;9.70;6.20
64861;PMS5003;62652;42.274;-71.436;2022-12-18T03:21:02;12.60;11.70;6.50
64861;PMS5003;62652;42.274;-71.436;2022-12-18T03:22:02;12.50;11.27;6.90
64861;PMS5003;62652;42.274;-71.436;2022-12-18T03:23:02;11.60;10.90;6.10
64861;PMS5003;62652;42.274;-71.436;2022-12-18T03:24:00;13.70;12.70;6.20
64861;PMS5003;62652;42.274;-71.436;2022-12-18T03:25:01;13.80;12.80;7.00
64861;PMS5003;62652;42.274;-71.436;2022-12-18T03:26:02;11.90;11.60;7.00
64861;PMS5003;62652;42.274;-71.436;2022-12-18T03:27:01;10.50;10.50;6.20
64861;PMS5003;62652;42.274;-71.436;2022-12-18T03:28:01;11.70;11.10;6.53
64861;PMS5003;62652;42.274;-71.436;2022-12-18T03:29:02;12.90;12.00;7.10
64861;PMS5003;62652;42.274;-71.436;2022-12-18T03:30:02;12.50;11.90;6.80
64861;PMS5003;62652;42.274;-71.436;2022-12-18T03:31:01;10.60;10.30;6.40
64861;PMS5003;62652;42.274;-71.436;2022-12-18T03:32:01;13.70;13.00;6.80
64861;PMS5003;62652;42.274;-71.436;2022-12-18T03:33:02;12.70;12.20;8.00
64861;PMS5003;62652;42.274;-71.436;2022-12-18T03:34:01;10.40;10.40;6.70
64861;PMS5003;62652;42.274;-71.436;2022-12-18T03:35:01;11.80;10.80;7.20
64861;PMS5003;62652;42.274;-71.436;2022-12-18T03:36:00;12.30;11.30;7.30
64861;PMS5003;62652;42.274;-71.436;2022-12-18T03:37:00;12.20;11.70;6.70
64861;PMS5003;62652;42.274;-71.436;2022-12-18T03:38:00;12.40;11.20;7.10
64861;PMS5003;62652;42.274;-71.436;2022-12-18T03:39:00;10.80;9.90;6.30
64861;PMS5003;62652;42.274;-71.436;2022-12-18T03:40:00;13.30;12.40;7.00
64861;PMS5003;62652;42.274;-71.436;2022-12-18T03:41:02;11.60;10.70;6.70
64861;PMS5003;62652;42.274;-71.436;2022-12-18T03:42:01;11.60;10.80;7.00
64861;PMS5003;62652;42.274;-71.436;2022-12-18T03:43:02;11.90;11.70;6.90
64861;PMS5003;62652;42.274;-71.436;2022-12-18T03:44:02;11.80;11.50;6.50
64861;PMS5003;62652;42.274;-71.436;2022-12-18T03:45:02;12.30;11.80;7.00
64861;PMS5003;62652;42.274;-71.436;2022-12-18T03:46:02;16.00;13.50;8.90
64861;PMS5003;62652;42.274;-71.436;2022-12-18T03:47:02;13.60;12.80;7.20
64861;PMS5003;62652;42.274;-71.436;2022-12-18T03:48:01;14.00;12.20;7.50
64861;PMS5003;62652;42.274;-71.436;2022-12-18T03:49:01;12.60;11.30;5.80
64861;PMS5003;62652;42.274;-71.436;2022-12-18T03:50:02;11.20;10.50;6.80
64861;PMS5003;62652;42.274;-71.436;2022-12-18T03:51:01;12.90;12.70;7.67
64861;PMS5003;62652;42.274;-71.436;2022-12-18T03:52:02;11.50;11.30;6.57
64861;PMS5003;62652;42.274;-71.436;2022-12-18T03:53:03;9.80;9.40;5.10
64861;PMS5003;62652;42.274;-71.436;2022-12-18T03:54:01;11.80;11.40;6.70
64861;PMS5003;62652;42.274;-71.436;2022-12-18T03:55:00;11.90;11.20;7.00
64861;PMS5003;62652;42.274;-71.436;2022-12-18T03:56:00;10.90;9.60;5.90
64861;PMS5003;62652;42.274;-71.436;2022-12-18T03:57:02;11.70;11.70;6.50
64861;PMS5003;62652;42.274;-71.436;2022-12-18T03:58:00;10.60;10.40;6.63
64861;PMS5003;62652;42.274;-71.436;2022-12-18T03:59:00;12.60;10.60;5.90
64861;PMS5003;62652;42.274;-71.436;2022-12-18T04:00:03;13.20;12.10;7.77
64861;PMS5003;62652;42.274;-71.436;2022-12-18T04:01:01;11.50;11.20;6.00
64861;PMS5003;62652;42.274;-71.436;2022-12-18T04:02:00;12.80;12.20;6.90
64861;PMS5003;62652;42.274;-71.436;2022-12-18T04:03:01;11.00;11.00;6.10
64861;PMS5003;62652;42.274;-71.436;2022-12-18T04:04:01;12.60;11.20;6.10
64861;PMS5003;62652;42.274;-71.436;2022-12-18T04:05:01;12.00;11.10;6.90
64861;PMS5003;62652;42.274;-71.436;2022-12-18T04:06:00;11.00;10.90;6.20
64861;PMS5003;62652;42.274;-71.436;2022-12-18T04:07:01;13.20;12.00;7.20
64861;PMS5003;62652;42.274;-71.436;2022-12-18T04:08:00;11.30;11.30;6.83
64861;PMS5003;62652;42.274;-71.436;2022-12-18T04:09:00;13.80;13.30;7.87
64861;PMS5003;62652;42.274;-71.436;2022-12-18T04:10:01;12.90;11.60;6.60
64861;PMS5003;62652;42.274;-71.436;2022-12-18T04:11:00;12.20;11.70;7.00
64861;PMS5003;62652;42.274;-71.436;2022-12-18T04:12:00;12.80;12.20;7.00
64861;PMS5003;62652;42.274;-71.436;2022-12-18T04:13:00;10.90;10.90;6.80
64861;PMS5003;62652;42.274;-71.436;2022-12-18T04:14:00;13.00;12.60;7.20
64861;PMS5003;62652;42.274;-71.436;2022-12-18T04:15:01;11.80;11.20;6.90
64861;PMS5003;62652;42.274;-71.436;2022-12-18T04:16:01;11.90;11.60;6.90
64861;PMS5003;62652;42.274;-71.436;2022-12-18T04:17:00;12.93;11.97;6.17
64861;PMS5003;62652;42.274;-71.436;2022-12-18T04:18:00;10.37;10.37;6.00
64861;PMS5003;62652;42.274;-71.436;2022-12-18T04:19:00;12.50;11.30;5.90
64861;PMS5003;62652;42.274;-71.436;2022-12-18T04:20:00;11.10;10.90;6.40
64861;PMS5003;62652;42.274;-71.436;2022-12-18T04:21:00;11.30;10.20;5.60
64861;PMS5003;62652;42.274;-71.436;2022-12-18T04:22:00;12.20;11.60;7.20
64861;PMS5003;62652;42.274;-71.436;2022-12-18T04:23:00;10.40;10.30;6.20
64861;PMS5003;62652;42.274;-71.436;2022-12-18T04:24:00;10.80;10.40;6.20
64861;PMS5003;62652;42.274;-71.436;2022-12-18T04:25:00;10.60;10.40;5.90
64861;PMS5003;62652;42.274;-71.436;2022-12-18T04:26:00;12.10;12.10;6.47
64861;PMS5003;62652;42.274;-71.436;2022-12-18T04:27:00;11.90;11.50;6.70
64861;PMS5003;62652;42.274;-71.436;2022-12-18T04:28:00;12.00;11.20;5.50
64861;PMS5003;62652;42.274;-71.436;2022-12-18T04:29:01;12.30;10.90;5.70
64861;PMS5003;62652;42.274;-71.436;2022-12-18T04:30:00;12.60;11.60;6.50
64861;PMS5003;62652;42.274;-71.436;2022-12-18T04:31:00;10.10;9.60;5.30
64861;PMS5003;62652;42.274;-71.436;2022-12-18T04:32:00;10.90;9.80;6.00
64861;PMS5003;62652;42.274;-71.436;2022-12-18T04:33:00;11.77;11.33;5.53
64861;PMS5003;62652;42.274;-71.436;2022-12-18T04:34:01;9.33;9.13;5.50
64861;PMS5003;62652;42.274;-71.436;2022-12-18T04:35:00;12.70;10.30;6.00
64861;PMS5003;62652;42.274;-71.436;2022-12-18T04:36:00;11.70;11.20;6.20
64861;PMS5003;62652;42.274;-71.436;2022-12-18T04:37:01;11.80;10.80;6.00
64861;PMS5003;62652;42.274;-71.436;2022-12-18T04:38:00;9.27;9.17;6.00
64861;PMS5003;62652;42.274;-71.436;2022-12-18T04:39:00;11.00;10.30;5.80
64861;PMS5003;62652;42.274;-71.436;2022-12-18T04:40:00;13.30;11.90;6.90
64861;PMS5003;62652;42.274;-71.436;2022-12-18T04:41:00;10.20;9.70;5.90
64861;PMS5003;62652;42.274;-71.436;2022-12-18T04:42:00;10.50;10.00;5.10
64861;PMS5003;62652;42.274;-71.436;2022-12-18T04:43:00;10.80;10.10;6.00
64861;PMS5003;62652;42.274;-71.436;2022-12-18T04:44:00;11.80;10.90;5.80
64861;PMS5003;62652;42.274;-71.436;2022-12-18T04:45:00;11.70;10.40;5.00
64861;PMS5003;62652;42.274;-71.436;2022-12-18T04:46:01;9.77;9.57;5.00
64861;PMS5003;62652;42.274;-71.436;2022-12-18T04:47:00;12.10;11.10;6.80
64861;PMS5003;62652;42.274;-71.436;2022-12-18T04:48:01;9.40;9.40;6.10
64861;PMS5003;62652;42.274;-71.436;2022-12-18T04:49:00;9.50;9.50;5.20
64861;PMS5003;62652;42.274;-71.436;2022-12-18T04:50:00;10.90;10.60;6.47
64861;PMS5003;62652;42.274;-71.436;2022-12-18T04:51:00;11.60;10.40;5.90
64861;PMS5003;62652;42.274;-71.436;2022-12-18T04:52:00;8.70;7.90;4.90
64861;PMS5003;62652;42.274;-71.436;2022-12-18T04:53:00;11.20;10.40;5.90
64861;PMS5003;62652;42.274;-71.436;2022-12-18T04:54:00;10.40;9.90;5.50
64861;PMS5003;62652;42.274;-71.436;2022-12-18T04:55:00;10.70;10.50;6.10
64861;PMS5003;62652;42.274;-71.436;2022-12-18T04:56:02;12.10;10.30;5.50
64861;PMS5003;62652;42.274;-71.436;2022-12-18T04:57:00;12.60;10.60;5.80
64861;PMS5003;62652;42.274;-71.436;2022-12-18T04:58:00;11.90;11.10;6.43
64861;PMS5003;62652;42.274;-71.436;2022-12-18T04:59:01;10.70;10.10;5.70
64861;PMS5003;62652;42.274;-71.436;2022-12-18T05:00:00;9.90;9.90;6.10
64861;PMS5003;62652;42.274;-71.436;2022-12-18T05:01:00;10.00;8.80;5.20
64861;PMS5003;62652;42.274;-71.436;2022-12-18T05:02:00;11.20;10.90;6.20
64861;PMS5003;62652;42.274;-71.436;2022-12-18T05:03:01;10.20;9.40;5.00
64861;PMS5003;62652;42.274;-71.436;2022-12-18T05:04:00;10.80;10.60;6.50
64861;PMS5003;62652;42.274;-71.436;2022-12-18T05:05:00;11.20;10.70;6.70
64861;PMS5003;62652;42.274;-71.436;2022-12-18T05:06:00;13.40;11.90;6.20
64861;PMS5003;62652;42.274;-71.436;2022-12-18T05:07:00;11.00;10.50;5.40
64861;PMS5003;62652;42.274;-71.436;2022-12-18T05:08:00;11.60;10.40;5.70
64861;PMS5003;62652;42.274;-71.436;2022-12-18T05:09:00;12.80;12.50;5.90
64861;PMS5003;62652;42.274;-71.436;2022-12-18T05:10:01;11.90;10.50;6.30
64861;PMS5003;62652;42.274;-71.436;2022-12-18T05:11:01;13.00;12.50;7.10
64861;PMS5003;62652;42.274;-71.436;2022-12-18T05:12:00;13.30;12.50;6.30
64861;PMS5003;62652;42.274;-71.436;2022-12-18T05:13:00;12.40;11.60;6.40
64861;PMS5003;62652;42.274;-71.436;2022-12-18T05:14:00;13.20;11.50;6.40
64861;PMS5003;62652;42.274;-71.436;2022-12-18T05:15:00;12.00;11.20;6.90
64861;PMS5003;62652;42.274;-71.436;2022-12-18T05:16:01;13.00;11.60;6.50
64861;PMS5003;62652;42.274;-71.436;2022-12-18T05:17:00;11.80;11.20;7.03
64861;PMS5003;62652;42.274;-71.436;2022-12-18T05:18:01;13.30;12.50;6.20
64861;PMS5003;62652;42.274;-71.436;2022-12-18T05:19:00;13.80;13.60;8.20
64861;PMS5003;62652;42.274;-71.436;2022-12-18T05:20:00;12.10;11.90;7.33
64861;PMS5003;62652;42.274;-71.436;2022-12-18T05:21:01;16.00;13.50;6.70
64861;PMS5003;62652;42.274;-71.436;2022-12-18T05:22:01;11.20;10.70;6.60
64861;PMS5003;62652;42.274;-71.436;2022-12-18T05:23:01;12.70;11.20;6.50
64861;PMS5003;62652;42.274;-71.436;2022-12-18T05:24:00;11.80;11.40;6.70
64861;PMS5003;62652;42.274;-71.436;2022-12-18T05:25:00;12.00;10.90;6.60
64861;PMS5003;62652;42.274;-71.436;2022-12-18T05:26:02;12.80;12.40;7.20
64861;PMS5003;62652;42.274;-71.436;2022-12-18T05:27:00;13.40;12.50;6.90
64861;PMS5003;62652;42.274;-71.436;2022-12-18T05:28:00;13.60;12.20;8.50
64861;PMS5003;62652;42.274;-71.436;2022-12-18T05:29:00;13.40;12.67;6.70
64861;PMS5003;62652;42.274;-71.436;2022-12-18T05:30:00;12.80;11.10;6.60
64861;PMS5003;62652;42.274;-71.436;2022-12-18T05:31:02;12.60;11.20;6.60
64861;PMS5003;62652;42.274;-71.436;2022-12-18T05:32:01;12.90;11.80;6.40
64861;PMS5003;62652;42.274;-71.436;2022-12-18T05:33:00;12.00;10.70;6.10
64861;PMS5003;62652;42.274;-71.436;2022-12-18T05:34:00;11.60;11.30;7.30
64861;PMS5003;62652;42.274;-71.436;2022-12-18T05:35:00;10.50;10.00;5.30
64861;PMS5003;62652;42.274;-71.436;2022-12-18T05:36:01;13.10;12.20;6.40
64861;PMS5003;62652;42.274;-71.436;2022-12-18T05:37:00;11.10;11.00;6.70